sensor_id;sensor_type;location;lat;lon;timestamp;temperature;humidity
56123;DHT22;42426;46.104;19.656;2022-11-04T00:01:57;282.10;2278.40
56123;DHT22;42426;46.104;19.656;2022-11-04T00:04:25;282.10;2278.40
56123;DHT22;42426;46.104;19.656;2022-11-04T00:06:52;282.10;2278.40
56123;DHT22;42426;46.104;19.656;2022-11-04T00:09:23;282.10;2278.40
56123;DHT22;42426;46.104;19.656;2022-11-04T00:11:50;282.10;2278.40
56123;DHT22;42426;46.104;19.656;2022-11-04T00:14:35;282.10;2278.40
56123;DHT22;42426;46.104;19.656;2022-11-04T00:17:02;282.10;2278.40
56123;DHT22;42426;46.104;19.656;2022-11-04T00:19:45;282.10;2278.40
56123;DHT22;42426;46.104;19.656;2022-11-04T00:22:29;282.10;2278.40
56123;DHT22;42426;46.104;19.656;2022-11-04T00:25:13;282.00;2278.40
56123;DHT22;42426;46.104;19.656;2022-11-04T00:28:14;282.00;2278.40
56123;DHT22;42426;46.104;19.656;2022-11-04T00:31:00;281.90;2278.40
56123;DHT22;42426;46.104;19.656;2022-11-04T00:33:48;281.90;2278.40
56123;DHT22;42426;46.104;19.656;2022-11-04T00:36:14;281.90;2278.40
56123;DHT22;42426;46.104;19.656;2022-11-04T00:38:41;281.90;2278.40
56123;DHT22;42426;46.104;19.656;2022-11-04T00:41:07;281.90;2278.40
56123;DHT22;42426;46.104;19.656;2022-11-04T00:43:53;281.90;2278.40
56123;DHT22;42426;46.104;19.656;2022-11-04T00:46:20;281.90;2278.40
56123;DHT22;42426;46.104;19.656;2022-11-04T00:48:46;281.90;2278.40
56123;DHT22;42426;46.104;19.656;2022-11-04T00:51:12;281.90;2278.40
56123;DHT22;42426;46.104;19.656;2022-11-04T00:53:38;281.90;2278.40
56123;DHT22;42426;46.104;19.656;2022-11-04T00:56:05;281.90;2278.40
56123;DHT22;42426;46.104;19.656;2022-11-04T00:58:31;281.90;2278.40
56123;DHT22;42426;46.104;19.656;2022-11-04T01:00:57;281.90;2278.40
56123;DHT22;42426;46.104;19.656;2022-11-04T01:03:22;282.00;2278.40
56123;DHT22;42426;46.104;19.656;2022-11-04T01:05:49;281.90;2278.40
56123;DHT22;42426;46.104;19.656;2022-11-04T01:08:15;281.90;2278.40
56123;DHT22;42426;46.104;19.656;2022-11-04T01:10:41;281.90;2278.40
56123;DHT22;42426;46.104;19.656;2022-11-04T01:13:10;281.90;2278.40
56123;DHT22;42426;46.104;19.656;2022-11-04T01:15:38;281.90;2278.40
56123;DHT22;42426;46.104;19.656;2022-11-04T01:18:04;281.80;2278.40
56123;DHT22;42426;46.104;19.656;2022-11-04T01:20:32;281.80;2278.40
56123;DHT22;42426;46.104;19.656;2022-11-04T01:22:58;281.80;2278.40
56123;DHT22;42426;46.104;19.656;2022-11-04T01:25:24;281.70;2278.40
56123;DHT22;42426;46.104;19.656;2022-11-04T01:27:50;282.00;2278.40
56123;DHT22;42426;46.104;19.656;2022-11-04T01:30:16;281.70;2278.40
56123;DHT22;42426;46.104;19.656;2022-11-04T01:32:41;281.80;2278.40
56123;DHT22;42426;46.104;19.656;2022-11-04T01:35:07;281.80;2278.40
56123;DHT22;42426;46.104;19.656;2022-11-04T01:37:33;281.70;2278.40
56123;DHT22;42426;46.104;19.656;2022-11-04T01:39:59;281.80;2278.40
56123;DHT22;42426;46.104;19.656;2022-11-04T01:42:25;281.70;2278.40
56123;DHT22;42426;46.104;19.656;2022-11-04T01:44:53;281.70;2278.40
56123;DHT22;42426;46.104;19.656;2022-11-04T01:47:34;281.60;2278.40
56123;DHT22;42426;46.104;19.656;2022-11-04T01:55:13;281.60;2278.40
56123;DHT22;42426;46.104;19.656;2022-11-04T01:57:41;281.60;2278.40
56123;DHT22;42426;46.104;19.656;2022-11-04T02:00:10;281.60;2278.40
56123;DHT22;42426;46.104;19.656;2022-11-04T02:03:07;281.60;2278.40
56123;DHT22;42426;46.104;19.656;2022-11-04T02:05:26;281.60;2278.40
56123;DHT22;42426;46.104;19.656;2022-11-04T02:07:57;281.60;2278.40
56123;DHT22;42426;46.104;19.656;2022-11-04T02:10:32;281.60;2278.40
56123;DHT22;42426;46.104;19.656;2022-11-04T02:13:00;256.90;2252.80
56123;DHT22;42426;46.104;19.656;2022-11-04T02:21:12;256.80;2252.80
56123;DHT22;42426;46.104;19.656;2022-11-04T02:32:03;256.80;2252.80
56123;DHT22;42426;46.104;19.656;2022-11-04T02:37:54;256.80;2252.80
56123;DHT22;42426;46.104;19.656;2022-11-04T02:46:09;256.70;2252.80
56123;DHT22;42426;46.104;19.656;2022-11-04T02:51:10;256.60;2252.80
56123;DHT22;42426;46.104;19.656;2022-11-04T02:53:39;256.60;2252.80
56123;DHT22;42426;46.104;19.656;2022-11-04T02:56:07;256.60;2252.80
56123;DHT22;42426;46.104;19.656;2022-11-04T02:58:40;256.60;2252.80
56123;DHT22;42426;46.104;19.656;2022-11-04T03:01:12;256.60;2252.80
56123;DHT22;42426;46.104;19.656;2022-11-04T03:03:43;256.50;2252.80
56123;DHT22;42426;46.104;19.656;2022-11-04T03:06:12;256.50;2252.80
56123;DHT22;42426;46.104;19.656;2022-11-04T03:08:44;256.50;2252.80
56123;DHT22;42426;46.104;19.656;2022-11-04T03:11:24;256.50;2252.80
56123;DHT22;42426;46.104;19.656;2022-11-04T03:13:55;256.50;2252.80
56123;DHT22;42426;46.104;19.656;2022-11-04T03:16:50;256.50;2252.80
56123;DHT22;42426;46.104;19.656;2022-11-04T03:22:16;256.50;2252.80
56123;DHT22;42426;46.104;19.656;2022-11-04T03:24:44;256.50;2252.80
56123;DHT22;42426;46.104;19.656;2022-11-04T03:29:50;256.50;2252.80
56123;DHT22;42426;46.104;19.656;2022-11-04T03:32:22;256.50;2252.80
56123;DHT22;42426;46.104;19.656;2022-11-04T03:34:49;256.50;2252.80
56123;DHT22;42426;46.104;19.656;2022-11-04T03:37:16;256.50;2252.80
56123;DHT22;42426;46.104;19.656;2022-11-04T03:39:42;256.50;2252.80
56123;DHT22;42426;46.104;19.656;2022-11-04T03:42:10;256.40;2252.80
56123;DHT22;42426;46.104;19.656;2022-11-04T03:44:54;256.40;2252.80
56123;DHT22;42426;46.104;19.656;2022-11-04T03:47:24;256.40;2252.80
56123;DHT22;42426;46.104;19.656;2022-11-04T03:50:45;256.40;2252.80
56123;DHT22;42426;46.104;19.656;2022-11-04T03:52:47;256.40;2252.80
56123;DHT22;42426;46.104;19.656;2022-11-04T03:55:13;256.30;2252.80
56123;DHT22;42426;46.104;19.656;2022-11-04T03:57:53;256.30;2252.80
56123;DHT22;42426;46.104;19.656;2022-11-04T04:00:22;256.30;2252.80
56123;DHT22;42426;46.104;19.656;2022-11-04T04:11:01;256.30;2252.80
56123;DHT22;42426;46.104;19.656;2022-11-04T04:21:36;256.30;2252.80
56123;DHT22;42426;46.104;19.656;2022-11-04T04:24:06;256.20;2252.80
56123;DHT22;42426;46.104;19.656;2022-11-04T04:26:54;256.20;2252.80
56123;DHT22;42426;46.104;19.656;2022-11-04T04:29:39;256.20;2252.80
56123;DHT22;42426;46.104;19.656;2022-11-04T04:32:08;256.20;2252.80
56123;DHT22;42426;46.104;19.656;2022-11-04T04:34:34;256.20;2252.80
56123;DHT22;42426;46.104;19.656;2022-11-04T04:37:10;256.20;2252.80
56123;DHT22;42426;46.104;19.656;2022-11-04T04:40:01;256.30;2252.80
56123;DHT22;42426;46.104;19.656;2022-11-04T04:42:46;256.20;2252.80
56123;DHT22;42426;46.104;19.656;2022-11-04T04:45:31;256.20;2252.80
56123;DHT22;42426;46.104;19.656;2022-11-04T04:47:58;256.30;2252.80
56123;DHT22;42426;46.104;19.656;2022-11-04T04:50:29;256.20;2252.80
56123;DHT22;42426;46.104;19.656;2022-11-04T04:52:58;256.20;2252.80
56123;DHT22;42426;46.104;19.656;2022-11-04T04:55:24;256.30;2252.80
56123;DHT22;42426;46.104;19.656;2022-11-04T04:57:50;256.20;2252.80
56123;DHT22;42426;46.104;19.656;2022-11-04T05:00:20;256.20;2252.80
56123;DHT22;42426;46.104;19.656;2022-11-04T05:02:45;256.20;2252.80
56123;DHT22;42426;46.104;19.656;2022-11-04T05:05:13;256.20;2252.80
56123;DHT22;42426;46.104;19.656;2022-11-04T05:07:39;256.20;2252.80
56123;DHT22;42426;46.104;19.656;2022-11-04T05:10:06;256.20;2252.80
56123;DHT22;42426;46.104;19.656;2022-11-04T05:12:34;256.20;2252.80
56123;DHT22;42426;46.104;19.656;2022-11-04T05:15:20;256.20;2252.80
56123;DHT22;42426;46.104;19.656;2022-11-04T05:17:45;256.20;2252.80
56123;DHT22;42426;46.104;19.656;2022-11-04T05:20:11;256.20;2252.80
56123;DHT22;42426;46.104;19.656;2022-11-04T05:22:37;256.20;2252.80
56123;DHT22;42426;46.104;19.656;2022-11-04T05:25:03;256.20;2252.80
56123;DHT22;42426;46.104;19.656;2022-11-04T05:27:29;256.30;2252.80
56123;DHT22;42426;46.104;19.656;2022-11-04T05:29:55;256.30;2252.80
56123;DHT22;42426;46.104;19.656;2022-11-04T05:32:20;256.30;2252.80
56123;DHT22;42426;46.104;19.656;2022-11-04T05:34:49;256.20;2252.80
56123;DHT22;42426;46.104;19.656;2022-11-04T05:37:15;256.30;2252.80
56123;DHT22;42426;46.104;19.656;2022-11-04T05:39:40;256.20;2252.80
56123;DHT22;42426;46.104;19.656;2022-11-04T05:42:06;256.20;2252.80
56123;DHT22;42426;46.104;19.656;2022-11-04T05:44:32;256.20;2252.80
56123;DHT22;42426;46.104;19.656;2022-11-04T05:46:57;256.20;2252.80
56123;DHT22;42426;46.104;19.656;2022-11-04T05:49:24;256.20;2252.80
56123;DHT22;42426;46.104;19.656;2022-11-04T05:51:50;256.20;2252.80
56123;DHT22;42426;46.104;19.656;2022-11-04T05:54:16;256.20;2252.80
56123;DHT22;42426;46.104;19.656;2022-11-04T05:56:43;256.20;2252.80
56123;DHT22;42426;46.104;19.656;2022-11-04T05:59:09;256.20;2252.80
56123;DHT22;42426;46.104;19.656;2022-11-04T06:01:37;256.20;2252.80
56123;DHT22;42426;46.104;19.656;2022-11-04T06:04:05;256.20;2252.80
56123;DHT22;42426;46.104;19.656;2022-11-04T06:06:34;256.30;2252.80
56123;DHT22;42426;46.104;19.656;2022-11-04T06:09:00;256.30;2252.80
56123;DHT22;42426;46.104;19.656;2022-11-04T06:11:27;256.30;2252.80
56123;DHT22;42426;46.104;19.656;2022-11-04T06:13:54;256.40;2252.80
56123;DHT22;42426;46.104;19.656;2022-11-04T06:16:21;256.40;2252.80
56123;DHT22;42426;46.104;19.656;2022-11-04T06:18:46;256.40;2252.80
56123;DHT22;42426;46.104;19.656;2022-11-04T06:23:43;256.50;2252.80
56123;DHT22;42426;46.104;19.656;2022-11-04T06:26:11;256.50;2252.80
56123;DHT22;42426;46.104;19.656;2022-11-04T06:28:37;256.50;2252.80
56123;DHT22;42426;46.104;19.656;2022-11-04T06:31:07;256.60;2252.80
56123;DHT22;42426;46.104;19.656;2022-11-04T06:33:33;256.60;2252.80
56123;DHT22;42426;46.104;19.656;2022-11-04T06:36:01;256.70;2252.80
56123;DHT22;42426;46.104;19.656;2022-11-04T06:38:29;256.70;2252.80
56123;DHT22;42426;46.104;19.656;2022-11-04T06:41:06;256.70;2252.80
56123;DHT22;42426;46.104;19.656;2022-11-04T06:43:32;256.80;2252.80
56123;DHT22;42426;46.104;19.656;2022-11-04T06:46:04;256.70;2252.80
56123;DHT22;42426;46.104;19.656;2022-11-04T06:48:30;256.80;2252.80
56123;DHT22;42426;46.104;19.656;2022-11-04T06:50:58;256.80;2252.80
56123;DHT22;42426;46.104;19.656;2022-11-04T06:53:24;256.70;2252.80
56123;DHT22;42426;46.104;19.656;2022-11-04T06:56:04;256.80;2252.80
56123;DHT22;42426;46.104;19.656;2022-11-04T06:58:31;256.80;2252.80
56123;DHT22;42426;46.104;19.656;2022-11-04T07:00:57;256.90;2252.80
56123;DHT22;42426;46.104;19.656;2022-11-04T07:03:23;256.90;2252.80
56123;DHT22;42426;46.104;19.656;2022-11-04T07:05:48;281.60;2278.40
56123;DHT22;42426;46.104;19.656;2022-11-04T07:08:14;281.60;2278.40
56123;DHT22;42426;46.104;19.656;2022-11-04T07:10:41;281.70;2278.40
56123;DHT22;42426;46.104;19.656;2022-11-04T07:13:06;281.70;2278.40
56123;DHT22;42426;46.104;19.656;2022-11-04T07:15:37;281.80;2278.40
56123;DHT22;42426;46.104;19.656;2022-11-04T07:18:03;281.90;2278.40
56123;DHT22;42426;46.104;19.656;2022-11-04T07:20:29;281.90;2278.40
56123;DHT22;42426;46.104;19.656;2022-11-04T07:22:55;282.00;2278.40
56123;DHT22;42426;46.104;19.656;2022-11-04T07:25:21;282.00;2278.40
56123;DHT22;42426;46.104;19.656;2022-11-04T07:27:47;282.10;2278.40
56123;DHT22;42426;46.104;19.656;2022-11-04T07:30:13;282.10;2278.40
56123;DHT22;42426;46.104;19.656;2022-11-04T07:32:38;282.10;2278.40
56123;DHT22;42426;46.104;19.656;2022-11-04T07:35:04;282.20;2278.40
56123;DHT22;42426;46.104;19.656;2022-11-04T07:37:32;282.20;2278.40
56123;DHT22;42426;46.104;19.656;2022-11-04T07:39:58;282.30;2278.40
56123;DHT22;42426;46.104;19.656;2022-11-04T07:42:24;282.40;2278.40
56123;DHT22;42426;46.104;19.656;2022-11-04T07:44:49;282.40;2278.40
56123;DHT22;42426;46.104;19.656;2022-11-04T07:47:15;282.50;2278.40
56123;DHT22;42426;46.104;19.656;2022-11-04T07:49:41;282.50;2278.40
56123;DHT22;42426;46.104;19.656;2022-11-04T07:52:07;307.20;2304.00
56123;DHT22;42426;46.104;19.656;2022-11-04T07:54:32;307.20;2304.00
56123;DHT22;42426;46.104;19.656;2022-11-04T07:56:59;307.20;2304.00
56123;DHT22;42426;46.104;19.656;2022-11-04T07:59:24;307.30;2304.00
56123;DHT22;42426;46.104;19.656;2022-11-04T08:01:52;307.30;2304.00
56123;DHT22;42426;46.104;19.656;2022-11-04T08:04:18;307.40;2304.00
56123;DHT22;42426;46.104;19.656;2022-11-04T08:06:44;307.40;2304.00
56123;DHT22;42426;46.104;19.656;2022-11-04T08:09:10;307.50;2304.00
56123;DHT22;42426;46.104;19.656;2022-11-04T08:11:35;307.50;2304.00
56123;DHT22;42426;46.104;19.656;2022-11-04T08:14:04;307.60;2304.00
56123;DHT22;42426;46.104;19.656;2022-11-04T08:16:30;307.60;2304.00
56123;DHT22;42426;46.104;19.656;2022-11-04T08:18:58;307.70;2304.00
56123;DHT22;42426;46.104;19.656;2022-11-04T08:21:29;307.70;2304.00
56123;DHT22;42426;46.104;19.656;2022-11-04T08:23:55;307.70;2304.00
56123;DHT22;42426;46.104;19.656;2022-11-04T08:26:22;307.80;2304.00
56123;DHT22;42426;46.104;19.656;2022-11-04T08:28:49;307.90;2304.00
56123;DHT22;42426;46.104;19.656;2022-11-04T08:31:21;307.90;2304.00
56123;DHT22;42426;46.104;19.656;2022-11-04T08:33:49;308.00;2304.00
56123;DHT22;42426;46.104;19.656;2022-11-04T08:38:41;308.10;2304.00
56123;DHT22;42426;46.104;19.656;2022-11-04T08:41:08;332.80;2329.60
56123;DHT22;42426;46.104;19.656;2022-11-04T08:43:34;332.90;2329.60
56123;DHT22;42426;46.104;19.656;2022-11-04T08:46:01;333.10;2329.60
56123;DHT22;42426;46.104;19.656;2022-11-04T08:48:29;333.10;2329.60
56123;DHT22;42426;46.104;19.656;2022-11-04T08:50:57;333.20;2329.60
56123;DHT22;42426;46.104;19.656;2022-11-04T08:53:24;358.40;2329.60
56123;DHT22;42426;46.104;19.656;2022-11-04T08:55:50;333.40;2329.60
56123;DHT22;42426;46.104;19.656;2022-11-04T08:58:16;333.50;2329.60
56123;DHT22;42426;46.104;19.656;2022-11-04T09:00:42;333.60;2329.60
56123;DHT22;42426;46.104;19.656;2022-11-04T09:03:08;333.60;2329.60
56123;DHT22;42426;46.104;19.656;2022-11-04T09:05:39;333.70;2329.60
56123;DHT22;42426;46.104;19.656;2022-11-04T09:08:15;358.40;2329.60
56123;DHT22;42426;46.104;19.656;2022-11-04T09:10:46;358.40;2329.60
56123;DHT22;42426;46.104;19.656;2022-11-04T09:13:13;358.40;2329.60
56123;DHT22;42426;46.104;19.656;2022-11-04T09:15:40;358.40;2329.60
56123;DHT22;42426;46.104;19.656;2022-11-04T09:18:07;358.40;2329.60
56123;DHT22;42426;46.104;19.656;2022-11-04T09:20:33;358.50;2329.60
56123;DHT22;42426;46.104;19.656;2022-11-04T09:22:59;358.60;2329.60
56123;DHT22;42426;46.104;19.656;2022-11-04T09:25:25;358.70;2329.60
56123;DHT22;42426;46.104;19.656;2022-11-04T09:27:51;358.70;2329.60
56123;DHT22;42426;46.104;19.656;2022-11-04T09:30:16;358.80;2329.60
56123;DHT22;42426;46.104;19.656;2022-11-04T09:32:42;358.90;2329.60
56123;DHT22;42426;46.104;19.656;2022-11-04T09:35:08;359.00;2329.60
56123;DHT22;42426;46.104;19.656;2022-11-04T09:37:34;359.10;2329.60
56123;DHT22;42426;46.104;19.656;2022-11-04T09:39:59;359.20;2329.60
56123;DHT22;42426;46.104;19.656;2022-11-04T10:00:18;384.90;2329.60
56123;DHT22;42426;46.104;19.656;2022-11-04T10:03:35;384.70;2329.60
56123;DHT22;42426;46.104;19.656;2022-11-04T10:11:34;384.70;2329.60
56123;DHT22;42426;46.104;19.656;2022-11-04T10:22:32;410.00;2329.60
56123;DHT22;42426;46.104;19.656;2022-11-04T10:27:39;410.00;2304.00
56123;DHT22;42426;46.104;19.656;2022-11-04T10:30:22;410.20;2278.40
56123;DHT22;42426;46.104;19.656;2022-11-04T10:35:50;410.40;2278.40
56123;DHT22;42426;46.104;19.656;2022-11-04T10:39:09;410.50;2252.80
56123;DHT22;42426;46.104;19.656;2022-11-04T10:41:25;435.30;2278.40
56123;DHT22;42426;46.104;19.656;2022-11-04T10:43:53;435.20;2252.80
56123;DHT22;42426;46.104;19.656;2022-11-04T10:51:58;435.20;2227.20
56123;DHT22;42426;46.104;19.656;2022-11-04T10:54:25;435.20;2227.20
56123;DHT22;42426;46.104;19.656;2022-11-04T10:56:55;435.20;2227.20
56123;DHT22;42426;46.104;19.656;2022-11-04T10:59:30;435.30;2201.60
56123;DHT22;42426;46.104;19.656;2022-11-04T11:02:43;435.30;2201.60
56123;DHT22;42426;46.104;19.656;2022-11-04T11:05:26;435.40;2201.60
56123;DHT22;42426;46.104;19.656;2022-11-04T11:07:55;435.40;2201.60
56123;DHT22;42426;46.104;19.656;2022-11-04T11:10:23;435.40;2201.60
56123;DHT22;42426;46.104;19.656;2022-11-04T11:12:57;435.50;2176.00
56123;DHT22;42426;46.104;19.656;2022-11-04T11:20:38;435.60;2150.40
56123;DHT22;42426;46.104;19.656;2022-11-04T11:25:56;435.60;2150.40
56123;DHT22;42426;46.104;19.656;2022-11-04T11:28:24;435.70;2150.40
56123;DHT22;42426;46.104;19.656;2022-11-04T11:30:58;435.70;2176.00
56123;DHT22;42426;46.104;19.656;2022-11-04T11:33:33;435.70;2150.40
56123;DHT22;42426;46.104;19.656;2022-11-04T11:38:49;435.70;2150.40
56123;DHT22;42426;46.104;19.656;2022-11-04T11:41:15;435.70;2150.40
56123;DHT22;42426;46.104;19.656;2022-11-04T11:44:29;435.70;2150.40
56123;DHT22;42426;46.104;19.656;2022-11-04T11:47:05;435.80;2150.40
56123;DHT22;42426;46.104;19.656;2022-11-04T11:49:33;435.70;2176.00
56123;DHT22;42426;46.104;19.656;2022-11-04T11:55:02;435.70;2150.40
56123;DHT22;42426;46.104;19.656;2022-11-04T11:57:34;435.60;2176.00
56123;DHT22;42426;46.104;19.656;2022-11-04T12:00:11;435.60;2176.00
56123;DHT22;42426;46.104;19.656;2022-11-04T12:03:13;435.60;2176.00
56123;DHT22;42426;46.104;19.656;2022-11-04T12:05:51;435.60;2150.40
56123;DHT22;42426;46.104;19.656;2022-11-04T12:14:00;435.60;2176.00
56123;DHT22;42426;46.104;19.656;2022-11-04T12:25:22;435.60;2176.00
56123;DHT22;42426;46.104;19.656;2022-11-04T12:30:32;435.60;2201.60
56123;DHT22;42426;46.104;19.656;2022-11-04T12:46:52;435.60;2201.60
56123;DHT22;42426;46.104;19.656;2022-11-04T12:49:39;435.60;2227.20
56123;DHT22;42426;46.104;19.656;2022-11-04T12:52:11;435.60;2227.20
56123;DHT22;42426;46.104;19.656;2022-11-04T12:58:12;435.70;2227.20
56123;DHT22;42426;46.104;19.656;2022-11-04T13:00:42;435.70;2227.20
56123;DHT22;42426;46.104;19.656;2022-11-04T13:03:33;435.70;2227.20
56123;DHT22;42426;46.104;19.656;2022-11-04T13:06:18;435.70;2227.20
56123;DHT22;42426;46.104;19.656;2022-11-04T13:08:55;435.70;2201.60
56123;DHT22;42426;46.104;19.656;2022-11-04T13:11:40;435.50;2201.60
56123;DHT22;42426;46.104;19.656;2022-11-04T13:17:28;435.60;2176.00
56123;DHT22;42426;46.104;19.656;2022-11-04T13:20:04;435.60;2201.60
56123;DHT22;42426;46.104;19.656;2022-11-04T13:22:46;435.60;2176.00
56123;DHT22;42426;46.104;19.656;2022-11-04T13:27:55;435.60;2176.00
56123;DHT22;42426;46.104;19.656;2022-11-04T13:44:01;435.60;2201.60
56123;DHT22;42426;46.104;19.656;2022-11-04T13:46:32;435.60;2201.60
56123;DHT22;42426;46.104;19.656;2022-11-04T13:51:37;435.50;2227.20
56123;DHT22;42426;46.104;19.656;2022-11-04T13:54:07;435.50;2227.20
56123;DHT22;42426;46.104;19.656;2022-11-04T13:56:39;435.50;2227.20
56123;DHT22;42426;46.104;19.656;2022-11-04T13:59:28;435.50;2227.20
56123;DHT22;42426;46.104;19.656;2022-11-04T14:04:42;435.40;2252.80
56123;DHT22;42426;46.104;19.656;2022-11-04T14:07:09;435.30;2278.40
56123;DHT22;42426;46.104;19.656;2022-11-04T14:14:50;435.30;2304.00
56123;DHT22;42426;46.104;19.656;2022-11-04T14:22:48;410.50;2329.60
56123;DHT22;42426;46.104;19.656;2022-11-04T14:25:38;410.40;2329.60
56123;DHT22;42426;46.104;19.656;2022-11-04T14:38:55;410.40;2355.20
56123;DHT22;42426;46.104;19.656;2022-11-04T14:44:19;410.30;2355.20
56123;DHT22;42426;46.104;19.656;2022-11-04T14:46:51;410.20;2355.20
56123;DHT22;42426;46.104;19.656;2022-11-04T14:52:19;410.30;2355.20
56123;DHT22;42426;46.104;19.656;2022-11-04T14:54:46;410.20;2355.20
56123;DHT22;42426;46.104;19.656;2022-11-04T14:57:22;410.20;2355.20
56123;DHT22;42426;46.104;19.656;2022-11-04T14:59:48;410.20;2355.20
56123;DHT22;42426;46.104;19.656;2022-11-04T15:02:24;410.20;2355.20
56123;DHT22;42426;46.104;19.656;2022-11-04T15:05:00;410.20;2355.20
56123;DHT22;42426;46.104;19.656;2022-11-04T15:07:39;410.00;2355.20
56123;DHT22;42426;46.104;19.656;2022-11-04T15:10:27;410.10;2355.20
56123;DHT22;42426;46.104;19.656;2022-11-04T15:12:58;410.10;2355.20
56123;DHT22;42426;46.104;19.656;2022-11-04T15:18:05;410.10;2355.20
56123;DHT22;42426;46.104;19.656;2022-11-04T15:20:34;410.10;2355.20
56123;DHT22;42426;46.104;19.656;2022-11-04T15:23:02;410.00;2355.20
56123;DHT22;42426;46.104;19.656;2022-11-04T15:25:28;410.00;2355.20
56123;DHT22;42426;46.104;19.656;2022-11-04T15:27:55;410.00;2355.20
56123;DHT22;42426;46.104;19.656;2022-11-04T15:30:27;409.90;2355.20
56123;DHT22;42426;46.104;19.656;2022-11-04T15:33:02;409.90;2355.20
56123;DHT22;42426;46.104;19.656;2022-11-04T15:35:31;409.90;2355.20
56123;DHT22;42426;46.104;19.656;2022-11-04T15:38:00;409.90;2355.20
56123;DHT22;42426;46.104;19.656;2022-11-04T15:40:28;409.80;2355.20
56123;DHT22;42426;46.104;19.656;2022-11-04T15:42:55;409.70;2355.20
56123;DHT22;42426;46.104;19.656;2022-11-04T15:47:47;409.70;2355.20
56123;DHT22;42426;46.104;19.656;2022-11-04T15:50:24;409.70;2355.20
56123;DHT22;42426;46.104;19.656;2022-11-04T15:52:53;409.60;2355.20
56123;DHT22;42426;46.104;19.656;2022-11-04T15:55:23;409.60;2355.20
56123;DHT22;42426;46.104;19.656;2022-11-04T15:57:50;409.60;2355.20
56123;DHT22;42426;46.104;19.656;2022-11-04T16:02:52;384.90;2329.60
56123;DHT22;42426;46.104;19.656;2022-11-04T16:07:45;409.60;2355.20
56123;DHT22;42426;46.104;19.656;2022-11-04T16:13:16;384.80;2329.60
